DOH weather

Hamad International Airport
Doha, Ad Dawhah Municipality, Qatar

Public forecast

Using degrees Celsius for public forecast. Weather courtesy of forecast.io.

Closest aviation weather report (METAR) to Hamad International Airport

Closest report is Doha International Airport, 2.4 nm (4.5 km) WSW. Retrieved 2019/10/18 20:30 UTC (1 minute ago):

OTBD 182030Z AUTO 34002KT 9000 NSC 30/23 Q1011 NOSIG

Closest aviation forecast (TAF) to Hamad International Airport

Closest forecast is Doha International Airport, 2.4 nm (4.5 km) WSW. Retrieved 2019/10/18 18:00 UTC (3 hours ago):

TAF OTBD 181702Z 1818/1924 09007KT CAVOK TEMPO 1820/1906 VRB03KT 5000 HZ BECMG 1823/1901 33005KT